Arvin, California
Current Conditions -  °F | °C
As of 9:54 PM on Thursday 30 Oct 2014 (Local Time) from KBFL Reporting Station
Clear Clear  
Wind Chill: 71°   Ceiling: Unl
Heat Index: 71°   Visibility: 9mi
Dew Point: 41°   Wind: 7mph
Humidity: 34%   Direction: 310°NW
Pressure: 29.9"   Gusts: NA
Location:  35.21°N, 118.82°W
Report Text: KBFL 310454Z AUTO 31006KT 9SM CLR 22/05 A2990 RMK AO2 SLP121 T02170050 TSNO
Loading
Personal Weather Stations






























Interactive Weather Map New forecast layout! Learn more

10-Day Weather Forecast

Advertisements
Track Severe Weather on mobile